Kaolack, Senegal
Current Conditions -  °F | °C
As of 12:00 AM on Tuesday 21 Oct 2014 (Local Time) from GOOK Reporting Station
Thunderstorm Thunderstorm  
Wind Chill: 26°   Ceiling: Unl
Heat Index: 28°   Visibility: 6mi
Dew Point: 23°   Wind: 5mph
Humidity: 83%   Direction: 320°NW
Pressure: 29.97"   Gusts: NA
Location:  14.15°N, 16.1°W
Report Text: GOOK 210000Z 32004KT 9999 TS FEW030CB 26/23 Q1015
Loading
Personal Weather Stations






























Interactive Weather Map
Tropical Storm Tracking
New forecast layout! Learn more

10-Day Weather Forecast

Advertisements
Track Severe Weather on mobile